SWR352 LSGG-EGLL
Flight info
| Callsign | SWR352 |
|---|---|
| Flight time | 1h 15m |
| Altitude | 36000 |
| Route | SIROD Z124 IBABA DCT TUTAX DCT OBURO DCT OKRIX DCT CLM DCT KOPOR DCT ABNUR DCT DIMAL DCT ALESO |
| Aircraft | A321/M-SDE3FGHIRWY/LB1 |
Departure
| Time | 2026-05-06 21:56 |
|---|---|
| Airport | Geneva International Airport (LSGG) |
Arrival
| Time | 2026-05-06 23:11 |
|---|---|
| Airport | London Heathrow Airport (EGLL) |
| Time | Latitude | Longitude | Altitude | Speed | Heading |
|---|---|---|---|---|---|
| 2026-05-06 21:29 | 46.23133 | 6.10698 | 1366 ft | 0 kts | 135° |
| 2026-05-06 21:47 | 46.23135 | 6.10695 | 1393 ft | 3 kts | 136° |
| 2026-05-06 21:47 | 46.23155 | 6.10675 | 1403 ft | 4 kts | 169° |
| 2026-05-06 21:47 | 46.23179 | 6.10679 | 1403 ft | 4 kts | 218° |
| 2026-05-06 21:48 | 46.23184 | 6.10685 | 1401 ft | 0 kts | 225° |
| 2026-05-06 21:50 | 46.23174 | 6.10670 | 1402 ft | 8 kts | 225° |
| 2026-05-06 21:50 | 46.23119 | 6.10590 | 1402 ft | 12 kts | 224° |
| 2026-05-06 21:50 | 46.23071 | 6.10507 | 1396 ft | 10 kts | 256° |
| 2026-05-06 21:50 | 46.23106 | 6.10434 | 1395 ft | 9 kts | 316° |
| 2026-05-06 21:51 | 46.23146 | 6.10378 | 1400 ft | 8 kts | 316° |
| 2026-05-06 21:51 | 46.23170 | 6.10319 | 1398 ft | 6 kts | 262° |
| 2026-05-06 21:51 | 46.23148 | 6.10269 | 1394 ft | 6 kts | 230° |
| 2026-05-06 21:51 | 46.23118 | 6.10219 | 1403 ft | 7 kts | 227° |
| 2026-05-06 21:52 | 46.23083 | 6.10166 | 1403 ft | 8 kts | 226° |
| 2026-05-06 21:52 | 46.23044 | 6.10111 | 1400 ft | 8 kts | 228° |
| 2026-05-06 21:52 | 46.23009 | 6.10056 | 1401 ft | 7 kts | 227° |
| 2026-05-06 21:52 | 46.22974 | 6.10007 | 1402 ft | 10 kts | 225° |
| 2026-05-06 21:53 | 46.22906 | 6.09907 | 1399 ft | 17 kts | 225° |
| 2026-05-06 21:53 | 46.22824 | 6.09787 | 1397 ft | 17 kts | 226° |
| 2026-05-06 21:53 | 46.22744 | 6.09669 | 1402 ft | 16 kts | 226° |
| 2026-05-06 21:53 | 46.22668 | 6.09559 | 1403 ft | 15 kts | 225° |
| 2026-05-06 21:54 | 46.22603 | 6.09461 | 1399 ft | 12 kts | 224° |
| 2026-05-06 21:54 | 46.22565 | 6.09387 | 1402 ft | 7 kts | 243° |
| 2026-05-06 21:54 | 46.22555 | 6.09342 | 1404 ft | 2 kts | 257° |
| 2026-05-06 21:54 | 46.22552 | 6.09306 | 1404 ft | 5 kts | 264° |
| 2026-05-06 21:55 | 46.22554 | 6.09221 | 1416 ft | 13 kts | 278° |
| 2026-05-06 21:55 | 46.22616 | 6.09162 | 1418 ft | 13 kts | 9° |
| 2026-05-06 21:55 | 46.22697 | 6.09266 | 1417 ft | 35 kts | 45° |
| 2026-05-06 21:55 | 46.23036 | 6.09766 | 1412 ft | 102 kts | 46° |
| 2026-05-06 21:56 | 46.23671 | 6.10698 | 1382 ft | 155 kts | 45° |
| 2026-05-06 21:56 | 46.24526 | 6.11924 | 1563 ft | 178 kts | 44° |
| 2026-05-06 21:56 | 46.25384 | 6.13198 | 2261 ft | 176 kts | 46° |
| 2026-05-06 21:56 | 46.26257 | 6.14503 | 2735 ft | 189 kts | 45° |
| 2026-05-06 21:57 | 46.27228 | 6.15935 | 2963 ft | 211 kts | 46° |
| 2026-05-06 21:57 | 46.28308 | 6.17534 | 3149 ft | 233 kts | 46° |
| 2026-05-06 21:57 | 46.29495 | 6.19292 | 3434 ft | 253 kts | 46° |
| 2026-05-06 21:57 | 46.30738 | 6.21127 | 4020 ft | 258 kts | 46° |
| 2026-05-06 21:58 | 46.32021 | 6.23016 | 4533 ft | 272 kts | 46° |
| 2026-05-06 21:58 | 46.33370 | 6.24997 | 5201 ft | 280 kts | 46° |
| 2026-05-06 21:58 | 46.34747 | 6.27017 | 5969 ft | 284 kts | 45° |
| 2026-05-06 21:58 | 46.36136 | 6.29081 | 6714 ft | 288 kts | 46° |
| 2026-05-06 21:59 | 46.37601 | 6.31070 | 7441 ft | 291 kts | 33° |
| 2026-05-06 21:59 | 46.39458 | 6.32198 | 8143 ft | 291 kts | 7° |
| 2026-05-06 21:59 | 46.41462 | 6.32173 | 8806 ft | 288 kts | 343° |
| 2026-05-06 21:59 | 46.43336 | 6.31207 | 9534 ft | 287 kts | 333° |
| 2026-05-06 22:00 | 46.45196 | 6.30113 | 10189 ft | 293 kts | 334° |
| 2026-05-06 22:00 | 46.47155 | 6.28957 | 10337 ft | 315 kts | 335° |
| 2026-05-06 22:00 | 46.49251 | 6.27724 | 10492 ft | 335 kts | 335° |
| 2026-05-06 22:00 | 46.51441 | 6.26447 | 10955 ft | 342 kts | 335° |
| 2026-05-06 22:01 | 46.53660 | 6.25162 | 11568 ft | 345 kts | 335° |
| 2026-05-06 22:01 | 46.55899 | 6.23866 | 12221 ft | 348 kts | 335° |
| 2026-05-06 22:01 | 46.58186 | 6.22544 | 12874 ft | 351 kts | 335° |
| 2026-05-06 22:01 | 46.60369 | 6.21061 | 13509 ft | 351 kts | 326° |
| 2026-05-06 22:02 | 46.62342 | 6.18980 | 14081 ft | 350 kts | 315° |
| 2026-05-06 22:02 | 46.64019 | 6.16409 | 14629 ft | 351 kts | 308° |
| 2026-05-06 22:02 | 46.65624 | 6.13723 | 15222 ft | 353 kts | 309° |
| 2026-05-06 22:02 | 46.67248 | 6.11018 | 15784 ft | 356 kts | 309° |
| 2026-05-06 22:03 | 46.68880 | 6.08309 | 16363 ft | 357 kts | 310° |
| 2026-05-06 22:03 | 46.70537 | 6.05560 | 16793 ft | 364 kts | 310° |
| 2026-05-06 22:03 | 46.72124 | 6.02671 | 17267 ft | 367 kts | 303° |
| 2026-05-06 22:03 | 46.73343 | 5.99400 | 17762 ft | 370 kts | 292° |
| 2026-05-06 22:04 | 46.74249 | 5.95870 | 18246 ft | 373 kts | 290° |
| 2026-05-06 22:04 | 46.75146 | 5.92307 | 18678 ft | 376 kts | 290° |
| 2026-05-06 22:04 | 46.76054 | 5.88717 | 19124 ft | 378 kts | 290° |
| 2026-05-06 22:04 | 46.76967 | 5.85118 | 19548 ft | 380 kts | 290° |
| 2026-05-06 22:05 | 46.77884 | 5.81489 | 19959 ft | 382 kts | 290° |
| 2026-05-06 22:05 | 46.78807 | 5.77837 | 20365 ft | 384 kts | 290° |
| 2026-05-06 22:05 | 46.79842 | 5.74242 | 20751 ft | 386 kts | 300° |
| 2026-05-06 22:05 | 46.81430 | 5.71065 | 21132 ft | 388 kts | 309° |
| 2026-05-06 22:06 | 46.83137 | 5.67991 | 21484 ft | 392 kts | 309° |
| 2026-05-06 22:06 | 46.84865 | 5.64895 | 21866 ft | 394 kts | 309° |
| 2026-05-06 22:06 | 46.86603 | 5.61786 | 22268 ft | 396 kts | 309° |
| 2026-05-06 22:06 | 46.88349 | 5.58659 | 22659 ft | 399 kts | 309° |
| 2026-05-06 22:07 | 46.90104 | 5.55507 | 23049 ft | 401 kts | 309° |
| 2026-05-06 22:07 | 46.91871 | 5.52333 | 23442 ft | 403 kts | 309° |
| 2026-05-06 22:07 | 46.93645 | 5.49140 | 23785 ft | 406 kts | 309° |
| 2026-05-06 22:07 | 46.95427 | 5.45924 | 24119 ft | 408 kts | 309° |
| 2026-05-06 22:08 | 46.97218 | 5.42685 | 24455 ft | 410 kts | 309° |
| 2026-05-06 22:08 | 46.99015 | 5.39435 | 24794 ft | 412 kts | 309° |
| 2026-05-06 22:08 | 47.00825 | 5.36163 | 25114 ft | 414 kts | 309° |
| 2026-05-06 22:08 | 47.02639 | 5.32875 | 25446 ft | 416 kts | 309° |
| 2026-05-06 22:09 | 47.04462 | 5.29560 | 25761 ft | 419 kts | 309° |
| 2026-05-06 22:09 | 47.06292 | 5.26225 | 26095 ft | 421 kts | 309° |
| 2026-05-06 22:09 | 47.08130 | 5.22872 | 26408 ft | 423 kts | 309° |
| 2026-05-06 22:09 | 47.09974 | 5.19507 | 26726 ft | 424 kts | 309° |
| 2026-05-06 22:10 | 47.11829 | 5.16118 | 27048 ft | 426 kts | 309° |
| 2026-05-06 22:10 | 47.13691 | 5.12718 | 27361 ft | 428 kts | 309° |
| 2026-05-06 22:10 | 47.15560 | 5.09300 | 27671 ft | 430 kts | 309° |
| 2026-05-06 22:10 | 47.17441 | 5.05857 | 27979 ft | 432 kts | 309° |
| 2026-05-06 22:11 | 47.19327 | 5.02401 | 28288 ft | 434 kts | 309° |
| 2026-05-06 22:11 | 47.21220 | 4.98926 | 28583 ft | 436 kts | 309° |
| 2026-05-06 22:11 | 47.23121 | 4.95434 | 28858 ft | 438 kts | 309° |
| 2026-05-06 22:11 | 47.25031 | 4.91926 | 29156 ft | 440 kts | 309° |
| 2026-05-06 22:12 | 47.26945 | 4.88408 | 29430 ft | 442 kts | 309° |
| 2026-05-06 22:12 | 47.28865 | 4.84865 | 29696 ft | 443 kts | 309° |
| 2026-05-06 22:12 | 47.30789 | 4.81308 | 29949 ft | 445 kts | 309° |
| 2026-05-06 22:12 | 47.32718 | 4.77735 | 30159 ft | 446 kts | 309° |
| 2026-05-06 22:13 | 47.34655 | 4.74143 | 30349 ft | 448 kts | 309° |
| 2026-05-06 22:13 | 47.36591 | 4.70548 | 30616 ft | 447 kts | 309° |
| 2026-05-06 22:13 | 47.38521 | 4.66962 | 30904 ft | 446 kts | 309° |
| 2026-05-06 22:13 | 47.40445 | 4.63375 | 31182 ft | 445 kts | 308° |
| 2026-05-06 22:14 | 47.42368 | 4.59789 | 31442 ft | 445 kts | 308° |
| 2026-05-06 22:14 | 47.44289 | 4.56208 | 31701 ft | 445 kts | 308° |
| 2026-05-06 22:14 | 47.46209 | 4.52625 | 31955 ft | 444 kts | 308° |
| 2026-05-06 22:14 | 47.48124 | 4.49044 | 32210 ft | 444 kts | 308° |
| 2026-05-06 22:15 | 47.50042 | 4.45451 | 32458 ft | 444 kts | 308° |
| 2026-05-06 22:15 | 47.51955 | 4.41867 | 32697 ft | 445 kts | 308° |
| 2026-05-06 22:15 | 47.53874 | 4.38270 | 32927 ft | 445 kts | 308° |
| 2026-05-06 22:15 | 47.55787 | 4.34676 | 33168 ft | 445 kts | 308° |
| 2026-05-06 22:16 | 47.57699 | 4.31075 | 33420 ft | 444 kts | 308° |
| 2026-05-06 22:16 | 47.59605 | 4.27483 | 33680 ft | 444 kts | 308° |
| 2026-05-06 22:16 | 47.61512 | 4.23886 | 33931 ft | 443 kts | 308° |
| 2026-05-06 22:16 | 47.63416 | 4.20288 | 34134 ft | 443 kts | 308° |
| 2026-05-06 22:17 | 47.65313 | 4.16695 | 34323 ft | 443 kts | 308° |
| 2026-05-06 22:17 | 47.67209 | 4.13096 | 34520 ft | 442 kts | 308° |
| 2026-05-06 22:17 | 47.69104 | 4.09495 | 34707 ft | 442 kts | 307° |
| 2026-05-06 22:17 | 47.70995 | 4.05897 | 34870 ft | 442 kts | 307° |
| 2026-05-06 22:18 | 47.72888 | 4.02293 | 35026 ft | 443 kts | 307° |
| 2026-05-06 22:18 | 47.74782 | 3.98685 | 35192 ft | 443 kts | 307° |
| 2026-05-06 22:18 | 47.76677 | 3.95073 | 35341 ft | 444 kts | 307° |
| 2026-05-06 22:18 | 47.78572 | 3.91455 | 35501 ft | 444 kts | 307° |
| 2026-05-06 22:19 | 47.80469 | 3.87830 | 35653 ft | 444 kts | 307° |
| 2026-05-06 22:19 | 47.82368 | 3.84196 | 35797 ft | 444 kts | 307° |
| 2026-05-06 22:19 | 47.84263 | 3.80565 | 35949 ft | 444 kts | 307° |
| 2026-05-06 22:19 | 47.86154 | 3.76938 | 35990 ft | 443 kts | 307° |
| 2026-05-06 22:20 | 47.89916 | 3.69708 | 35983 ft | 441 kts | 307° |
| 2026-05-06 22:20 | 47.93665 | 3.62472 | 35981 ft | 441 kts | 308° |
| 2026-05-06 22:21 | 47.98160 | 3.56283 | 35988 ft | 443 kts | 327° |
| 2026-05-06 22:21 | 48.03737 | 3.52353 | 35987 ft | 445 kts | 336° |
| 2026-05-06 22:22 | 48.09461 | 3.48809 | 35990 ft | 445 kts | 336° |
| 2026-05-06 22:22 | 48.15143 | 3.45251 | 35992 ft | 446 kts | 336° |
| 2026-05-06 22:23 | 48.20899 | 3.41648 | 35992 ft | 446 kts | 336° |
| 2026-05-06 22:23 | 48.26584 | 3.38091 | 35998 ft | 445 kts | 336° |
| 2026-05-06 22:24 | 48.32298 | 3.34512 | 35992 ft | 445 kts | 336° |
| 2026-05-06 22:24 | 48.38012 | 3.30925 | 35995 ft | 445 kts | 336° |
| 2026-05-06 22:25 | 48.43719 | 3.27332 | 36009 ft | 445 kts | 336° |
| 2026-05-06 22:25 | 48.49414 | 3.23727 | 36006 ft | 444 kts | 336° |
| 2026-05-06 22:26 | 48.55121 | 3.20109 | 35998 ft | 444 kts | 336° |
| 2026-05-06 22:26 | 48.60823 | 3.16491 | 36002 ft | 444 kts | 336° |
| 2026-05-06 22:27 | 48.65592 | 3.13453 | 36007 ft | 444 kts | 336° |
| 2026-05-06 22:27 | 48.71285 | 3.09828 | 36011 ft | 444 kts | 336° |
| 2026-05-06 22:28 | 48.76975 | 3.06192 | 36011 ft | 444 kts | 336° |
| 2026-05-06 22:28 | 48.82662 | 3.02549 | 36007 ft | 443 kts | 336° |
| 2026-05-06 22:29 | 48.88112 | 2.98235 | 36007 ft | 442 kts | 329° |
| 2026-05-06 22:29 | 48.93439 | 2.93563 | 36017 ft | 442 kts | 329° |
| 2026-05-06 22:30 | 48.98763 | 2.88894 | 36009 ft | 441 kts | 329° |
| 2026-05-06 22:30 | 49.04084 | 2.84228 | 36008 ft | 441 kts | 329° |
| 2026-05-06 22:31 | 49.09405 | 2.79548 | 36008 ft | 441 kts | 329° |
| 2026-05-06 22:31 | 49.14722 | 2.74860 | 36012 ft | 441 kts | 329° |
| 2026-05-06 22:32 | 49.20027 | 2.70167 | 36012 ft | 441 kts | 329° |
| 2026-05-06 22:32 | 49.25336 | 2.65449 | 36013 ft | 441 kts | 329° |
| 2026-05-06 22:33 | 49.30635 | 2.60740 | 36020 ft | 440 kts | 329° |
| 2026-05-06 22:33 | 49.35892 | 2.56057 | 36023 ft | 439 kts | 329° |
| 2026-05-06 22:34 | 49.41170 | 2.51341 | 36019 ft | 439 kts | 329° |
| 2026-05-06 22:34 | 49.46442 | 2.46609 | 36020 ft | 438 kts | 329° |
| 2026-05-06 22:35 | 49.51707 | 2.41877 | 36015 ft | 438 kts | 329° |
| 2026-05-06 22:35 | 49.57029 | 2.37302 | 36019 ft | 438 kts | 331° |
| 2026-05-06 22:36 | 49.62389 | 2.32840 | 36019 ft | 438 kts | 331° |
| 2026-05-06 22:36 | 49.67740 | 2.28347 | 36004 ft | 438 kts | 330° |
| 2026-05-06 22:37 | 49.73065 | 2.23812 | 36026 ft | 437 kts | 330° |
| 2026-05-06 22:37 | 49.78386 | 2.19262 | 36023 ft | 437 kts | 330° |
| 2026-05-06 22:38 | 49.83705 | 2.14708 | 36015 ft | 436 kts | 330° |
| 2026-05-06 22:38 | 49.89019 | 2.10155 | 36016 ft | 436 kts | 330° |
| 2026-05-06 22:39 | 49.94328 | 2.05598 | 36014 ft | 436 kts | 330° |
| 2026-05-06 22:39 | 49.99633 | 2.01035 | 36014 ft | 436 kts | 330° |
| 2026-05-06 22:40 | 50.04936 | 1.96448 | 36017 ft | 436 kts | 330° |
| 2026-05-06 22:40 | 50.10237 | 1.91852 | 36015 ft | 436 kts | 330° |
| 2026-05-06 22:41 | 50.17997 | 1.84490 | 36022 ft | 435 kts | 319° |
| 2026-05-06 22:42 | 50.22352 | 1.77950 | 36019 ft | 435 kts | 315° |
| 2026-05-06 22:42 | 50.26675 | 1.71346 | 36020 ft | 435 kts | 315° |
| 2026-05-06 22:42 | 50.28838 | 1.68039 | 35880 ft | 435 kts | 315° |
| 2026-05-06 22:43 | 50.31003 | 1.64731 | 35586 ft | 434 kts | 315° |
| 2026-05-06 22:43 | 50.33162 | 1.61429 | 34941 ft | 434 kts | 315° |
| 2026-05-06 22:43 | 50.35324 | 1.58118 | 34122 ft | 437 kts | 315° |
| 2026-05-06 22:43 | 50.37502 | 1.54777 | 33192 ft | 440 kts | 315° |
| 2026-05-06 22:44 | 50.39653 | 1.51474 | 32533 ft | 436 kts | 315° |
| 2026-05-06 22:44 | 50.41829 | 1.48127 | 32042 ft | 430 kts | 315° |
| 2026-05-06 22:44 | 50.43923 | 1.44897 | 31498 ft | 425 kts | 315° |
| 2026-05-06 22:44 | 50.46042 | 1.41618 | 30958 ft | 421 kts | 315° |
| 2026-05-06 22:45 | 50.48114 | 1.38406 | 30420 ft | 417 kts | 315° |
| 2026-05-06 22:45 | 50.50160 | 1.35208 | 29856 ft | 413 kts | 314° |
| 2026-05-06 22:45 | 50.52112 | 1.32014 | 29313 ft | 407 kts | 313° |
| 2026-05-06 22:45 | 50.54043 | 1.28734 | 28798 ft | 401 kts | 311° |
| 2026-05-06 22:46 | 50.55881 | 1.25550 | 28306 ft | 395 kts | 311° |
| 2026-05-06 22:46 | 50.57711 | 1.22369 | 27801 ft | 390 kts | 311° |
| 2026-05-06 22:46 | 50.59576 | 1.19243 | 27298 ft | 384 kts | 313° |
| 2026-05-06 22:46 | 50.61409 | 1.16311 | 26840 ft | 377 kts | 314° |
| 2026-05-06 22:47 | 50.63258 | 1.13427 | 26380 ft | 371 kts | 314° |
| 2026-05-06 22:47 | 50.65089 | 1.10597 | 25938 ft | 366 kts | 314° |
| 2026-05-06 22:47 | 50.66886 | 1.07809 | 25506 ft | 360 kts | 314° |
| 2026-05-06 22:47 | 50.68657 | 1.05042 | 25084 ft | 357 kts | 314° |
| 2026-05-06 22:48 | 50.70410 | 1.02283 | 24675 ft | 355 kts | 314° |
| 2026-05-06 22:48 | 50.72143 | 0.99536 | 24262 ft | 352 kts | 313° |
| 2026-05-06 22:48 | 50.73865 | 0.96793 | 23843 ft | 350 kts | 313° |
| 2026-05-06 22:48 | 50.75571 | 0.94060 | 23408 ft | 348 kts | 313° |
| 2026-05-06 22:49 | 50.77290 | 0.91303 | 22962 ft | 346 kts | 313° |
| 2026-05-06 22:49 | 50.78976 | 0.88605 | 22567 ft | 344 kts | 313° |
| 2026-05-06 22:49 | 50.80656 | 0.85925 | 22153 ft | 342 kts | 313° |
| 2026-05-06 22:49 | 50.82324 | 0.83263 | 21739 ft | 340 kts | 313° |
| 2026-05-06 22:50 | 50.83962 | 0.80642 | 21331 ft | 338 kts | 313° |
| 2026-05-06 22:50 | 50.85631 | 0.77970 | 20913 ft | 336 kts | 313° |
| 2026-05-06 22:50 | 50.87264 | 0.75351 | 20507 ft | 334 kts | 313° |
| 2026-05-06 22:50 | 50.88889 | 0.72743 | 20096 ft | 331 kts | 313° |
| 2026-05-06 22:51 | 50.90498 | 0.70155 | 19680 ft | 328 kts | 313° |
| 2026-05-06 22:51 | 50.92090 | 0.67589 | 19270 ft | 326 kts | 313° |
| 2026-05-06 22:51 | 50.93674 | 0.65033 | 18861 ft | 324 kts | 313° |
| 2026-05-06 22:51 | 50.95248 | 0.62492 | 18455 ft | 322 kts | 314° |
| 2026-05-06 22:52 | 50.96813 | 0.59969 | 18076 ft | 323 kts | 314° |
| 2026-05-06 22:52 | 50.98440 | 0.57345 | 17802 ft | 340 kts | 314° |
| 2026-05-06 22:52 | 51.00107 | 0.54649 | 16653 ft | 344 kts | 314° |
| 2026-05-06 22:52 | 51.01753 | 0.51989 | 16161 ft | 336 kts | 314° |
| 2026-05-06 22:53 | 51.03372 | 0.49366 | 15684 ft | 335 kts | 314° |
| 2026-05-06 22:53 | 51.05003 | 0.46721 | 15035 ft | 330 kts | 314° |
| 2026-05-06 22:53 | 51.06605 | 0.44123 | 14572 ft | 328 kts | 314° |
| 2026-05-06 22:53 | 51.08209 | 0.41579 | 14088 ft | 323 kts | 315° |
| 2026-05-06 22:54 | 51.09830 | 0.39096 | 13500 ft | 323 kts | 316° |
| 2026-05-06 22:54 | 51.11451 | 0.36649 | 13008 ft | 320 kts | 316° |
| 2026-05-06 22:54 | 51.13064 | 0.34220 | 12521 ft | 318 kts | 316° |
| 2026-05-06 22:54 | 51.14650 | 0.31820 | 12206 ft | 309 kts | 316° |
| 2026-05-06 22:55 | 51.16173 | 0.29509 | 12074 ft | 296 kts | 316° |
| 2026-05-06 22:55 | 51.17642 | 0.27273 | 11781 ft | 289 kts | 316° |
| 2026-05-06 22:55 | 51.19078 | 0.25077 | 11226 ft | 285 kts | 316° |
| 2026-05-06 22:55 | 51.20507 | 0.22886 | 10762 ft | 284 kts | 316° |
| 2026-05-06 22:56 | 51.21925 | 0.20706 | 10361 ft | 282 kts | 316° |
| 2026-05-06 22:56 | 51.23332 | 0.18539 | 9955 ft | 280 kts | 316° |
| 2026-05-06 22:56 | 51.24732 | 0.16383 | 9517 ft | 279 kts | 316° |
| 2026-05-06 22:56 | 51.26121 | 0.14243 | 9068 ft | 277 kts | 316° |
| 2026-05-06 22:57 | 51.27507 | 0.12107 | 8622 ft | 276 kts | 316° |
| 2026-05-06 22:57 | 51.28886 | 0.09980 | 8178 ft | 275 kts | 316° |
| 2026-05-06 22:57 | 51.30236 | 0.07897 | 8002 ft | 263 kts | 316° |
| 2026-05-06 22:57 | 51.31519 | 0.05913 | 7871 ft | 251 kts | 316° |
| 2026-05-06 22:58 | 51.32599 | 0.03801 | 7664 ft | 243 kts | 299° |
| 2026-05-06 22:58 | 51.33186 | 0.01306 | 7356 ft | 240 kts | 280° |
| 2026-05-06 22:58 | 51.33357 | -0.01345 | 6996 ft | 240 kts | 275° |
| 2026-05-06 22:58 | 51.33495 | -0.03987 | 6695 ft | 237 kts | 275° |
| 2026-05-06 22:59 | 51.33637 | -0.06603 | 6360 ft | 236 kts | 275° |
| 2026-05-06 22:59 | 51.33777 | -0.09206 | 6013 ft | 235 kts | 275° |
| 2026-05-06 22:59 | 51.33913 | -0.11774 | 5684 ft | 233 kts | 275° |
| 2026-05-06 22:59 | 51.34051 | -0.14354 | 5339 ft | 232 kts | 275° |
| 2026-05-06 23:00 | 51.34189 | -0.16914 | 5032 ft | 230 kts | 275° |
| 2026-05-06 23:00 | 51.34323 | -0.19431 | 4729 ft | 228 kts | 275° |
| 2026-05-06 23:00 | 51.34455 | -0.21949 | 4433 ft | 225 kts | 275° |
| 2026-05-06 23:00 | 51.34587 | -0.24455 | 4306 ft | 227 kts | 275° |
| 2026-05-06 23:01 | 51.34720 | -0.26987 | 4177 ft | 229 kts | 275° |
| 2026-05-06 23:01 | 51.34851 | -0.29522 | 4044 ft | 229 kts | 275° |
| 2026-05-06 23:01 | 51.34981 | -0.32055 | 3921 ft | 228 kts | 275° |
| 2026-05-06 23:01 | 51.35112 | -0.34582 | 3788 ft | 227 kts | 275° |
| 2026-05-06 23:02 | 51.35244 | -0.37110 | 3659 ft | 228 kts | 275° |
| 2026-05-06 23:02 | 51.35371 | -0.39632 | 3531 ft | 227 kts | 276° |
| 2026-05-06 23:02 | 51.35496 | -0.42154 | 3403 ft | 227 kts | 276° |
| 2026-05-06 23:02 | 51.35623 | -0.44664 | 3274 ft | 227 kts | 276° |
| 2026-05-06 23:03 | 51.35752 | -0.47180 | 3147 ft | 227 kts | 276° |
| 2026-05-06 23:03 | 51.35880 | -0.49696 | 3039 ft | 227 kts | 275° |
| 2026-05-06 23:03 | 51.36005 | -0.52206 | 3007 ft | 226 kts | 275° |
| 2026-05-06 23:03 | 51.36131 | -0.54721 | 3008 ft | 227 kts | 275° |
| 2026-05-06 23:04 | 51.36257 | -0.57232 | 3009 ft | 227 kts | 276° |
| 2026-05-06 23:04 | 51.36381 | -0.59747 | 3008 ft | 227 kts | 276° |
| 2026-05-06 23:04 | 51.36502 | -0.62267 | 3008 ft | 227 kts | 275° |
| 2026-05-06 23:04 | 51.36624 | -0.64784 | 3008 ft | 227 kts | 275° |
| 2026-05-06 23:05 | 51.36747 | -0.67298 | 2984 ft | 227 kts | 275° |
| 2026-05-06 23:05 | 51.36872 | -0.69800 | 2676 ft | 226 kts | 277° |
| 2026-05-06 23:05 | 51.37284 | -0.72178 | 2508 ft | 222 kts | 298° |
| 2026-05-06 23:05 | 51.38181 | -0.74178 | 2507 ft | 223 kts | 317° |
| 2026-05-06 23:06 | 51.38991 | -0.75183 | 2508 ft | 222 kts | 330° |
| 2026-05-06 23:06 | 51.40329 | -0.76428 | 2508 ft | 223 kts | 330° |
| 2026-05-06 23:06 | 51.41729 | -0.77503 | 2509 ft | 231 kts | 346° |
| 2026-05-06 23:06 | 51.43397 | -0.77630 | 2506 ft | 244 kts | 12° |
| 2026-05-06 23:07 | 51.44882 | -0.76602 | 2506 ft | 226 kts | 37° |
| 2026-05-06 23:07 | 51.45878 | -0.74809 | 2511 ft | 209 kts | 60° |
| 2026-05-06 23:07 | 51.46323 | -0.72724 | 2518 ft | 188 kts | 80° |
| 2026-05-06 23:07 | 51.46364 | -0.70728 | 2505 ft | 170 kts | 88° |
| 2026-05-06 23:08 | 51.46376 | -0.68830 | 2509 ft | 171 kts | 88° |
| 2026-05-06 23:08 | 51.46388 | -0.66914 | 2397 ft | 172 kts | 89° |
| 2026-05-06 23:08 | 51.46399 | -0.65003 | 2199 ft | 171 kts | 88° |
| 2026-05-06 23:08 | 51.46409 | -0.63107 | 1976 ft | 169 kts | 88° |
| 2026-05-06 23:09 | 51.46418 | -0.61296 | 1762 ft | 157 kts | 88° |
| 2026-05-06 23:09 | 51.46426 | -0.59614 | 1532 ft | 146 kts | 88° |
| 2026-05-06 23:09 | 51.46435 | -0.58000 | 1341 ft | 143 kts | 88° |
| 2026-05-06 23:09 | 51.46442 | -0.56408 | 1139 ft | 142 kts | 87° |
| 2026-05-06 23:10 | 51.46448 | -0.54832 | 942 ft | 142 kts | 88° |
| 2026-05-06 23:10 | 51.46444 | -0.53261 | 755 ft | 140 kts | 86° |
| 2026-05-06 23:10 | 51.46459 | -0.51700 | 567 ft | 140 kts | 86° |
| 2026-05-06 23:10 | 51.46473 | -0.50152 | 367 ft | 139 kts | 89° |
| 2026-05-06 23:11 | 51.46478 | -0.48614 | 169 ft | 137 kts | 88° |
| 2026-05-06 23:11 | 51.46489 | -0.47111 | 87 ft | 128 kts | 88° |
| 2026-05-06 23:11 | 51.46494 | -0.45939 | 82 ft | 79 kts | 89° |
| 2026-05-06 23:11 | 51.46495 | -0.45419 | 84 ft | 24 kts | 83° |
| 2026-05-06 23:12 | 51.46548 | -0.45180 | 90 ft | 21 kts | 65° |
| 2026-05-06 23:12 | 51.46604 | -0.45093 | 93 ft | 10 kts | 10° |
| 2026-05-06 23:12 | 51.46679 | -0.45078 | 87 ft | 12 kts | 8° |
| 2026-05-06 23:12 | 51.46750 | -0.45036 | 90 ft | 10 kts | 59° |
| 2026-05-06 23:13 | 51.46753 | -0.44927 | 85 ft | 10 kts | 90° |
| 2026-05-06 23:13 | 51.46753 | -0.44823 | 85 ft | 9 kts | 90° |
| 2026-05-06 23:13 | 51.46753 | -0.44722 | 85 ft | 9 kts | 90° |
| 2026-05-06 23:13 | 51.46754 | -0.44625 | 85 ft | 9 kts | 89° |
| 2026-05-06 23:14 | 51.46790 | -0.44556 | 86 ft | 8 kts | 18° |
| 2026-05-06 23:14 | 51.46842 | -0.44555 | 87 ft | 5 kts | 358° |
| 2026-05-06 23:14 | 51.46858 | -0.44584 | 87 ft | 4 kts | 285° |
| 2026-05-06 23:14 | 51.46859 | -0.44631 | 87 ft | 4 kts | 269° |
| 2026-05-06 23:15 | 51.46858 | -0.44665 | 88 ft | 2 kts | 266° |
| 2026-05-06 23:15 | 51.46858 | -0.44674 | 88 ft | 0 kts | 266° |
| 2026-05-06 23:20 | 51.46858 | -0.44673 | 88 ft | 0 kts | 266° |